Matagami, Canada
Current Conditions -  °F | °C
As of 11:00 AM on Monday 24 Nov 2014 (Local Time) from CYNM Reporting Station
Light Rain Light Rain  
Wind Chill: 34°   Ceiling: 400
Heat Index: 41°   Visibility: 6mi
Dew Point: 39°   Wind: 12mph
Humidity: 93%   Direction: 130°SE
Pressure: 28.97"   Gusts: 17mph
Location:  49.76°N, 77.63°W
Report Text: CYNM 241600Z AUTO 13010G15KT 6SM -RA BR OVC004 05/04 A2897 RMK PRESFR PCPN 0.8MM PAST HR SLP822
Loading
Personal Weather Stations






























Interactive Weather Map New forecast layout! Learn more

10-Day Weather Forecast

Advertisements
Track Severe Weather on mobile